Moenkopi, Arizona
Current Conditions -  °F | °C
As of 5:54 AM on Friday 31 Oct 2014 (Local Time) from KGCN Reporting Station
Clear Clear  
Wind Chill: 34°   Ceiling: Unl
Heat Index: 34°   Visibility: 10mi
Dew Point: 19°   Wind: 0mph
Humidity: 54%   Direction: NA
Pressure: 30.22"   Gusts: NA
Location:  35.9808°N, 111.359°W
Report Text: KGCN 311154Z 00000KT 10SM CLR 01/M07 A3022 RMK AO2 SLP184 T00111072 10017 21022 56007
Loading
Personal Weather Stations






























Interactive Weather Map
Tropical Storm Tracking
New forecast layout! Learn more

10-Day Weather Forecast

Advertisements
Track Severe Weather on mobile